sensor_id;sensor_type;location;lat;lon;timestamp;temperature;humidity
72604;DHT22;60645;56.968;24.196;2024-01-27T00:00:28;-2.40;92.00
72604;DHT22;60645;56.968;24.196;2024-01-27T00:02:55;-2.30;91.90
72604;DHT22;60645;56.968;24.196;2024-01-27T00:05:22;-2.30;91.80
72604;DHT22;60645;56.968;24.196;2024-01-27T00:07:49;-2.30;92.00
72604;DHT22;60645;56.968;24.196;2024-01-27T00:10:16;-2.20;91.90
72604;DHT22;60645;56.968;24.196;2024-01-27T00:12:43;-2.10;91.90
72604;DHT22;60645;56.968;24.196;2024-01-27T00:15:10;-2.10;92.00
72604;DHT22;60645;56.968;24.196;2024-01-27T00:17:37;-2.20;91.80
72604;DHT22;60645;56.968;24.196;2024-01-27T00:20:05;-2.10;91.50
72604;DHT22;60645;56.968;24.196;2024-01-27T00:22:32;-2.00;91.50
72604;DHT22;60645;56.968;24.196;2024-01-27T00:24:59;-2.00;91.40
72604;DHT22;60645;56.968;24.196;2024-01-27T00:27:26;-2.00;91.20
72604;DHT22;60645;56.968;24.196;2024-01-27T00:29:54;-2.00;91.40
72604;DHT22;60645;56.968;24.196;2024-01-27T00:32:21;-2.10;91.50
72604;DHT22;60645;56.968;24.196;2024-01-27T00:34:47;-1.90;91.40
72604;DHT22;60645;56.968;24.196;2024-01-27T00:37:15;-2.20;91.90
72604;DHT22;60645;56.968;24.196;2024-01-27T00:39:42;-2.00;91.90
72604;DHT22;60645;56.968;24.196;2024-01-27T00:42:09;-2.00;91.90
72604;DHT22;60645;56.968;24.196;2024-01-27T00:44:36;-1.90;91.70
72604;DHT22;60645;56.968;24.196;2024-01-27T00:47:03;-2.00;91.70
72604;DHT22;60645;56.968;24.196;2024-01-27T00:49:30;-1.90;91.70
72604;DHT22;60645;56.968;24.196;2024-01-27T00:51:57;-2.00;91.60
72604;DHT22;60645;56.968;24.196;2024-01-27T00:54:24;-1.90;91.50
72604;DHT22;60645;56.968;24.196;2024-01-27T00:56:52;-1.90;91.60
72604;DHT22;60645;56.968;24.196;2024-01-27T00:59:19;-2.00;91.60
72604;DHT22;60645;56.968;24.196;2024-01-27T01:01:46;-2.00;91.80
72604;DHT22;60645;56.968;24.196;2024-01-27T01:04:13;-2.00;92.10
72604;DHT22;60645;56.968;24.196;2024-01-27T01:06:40;-2.00;91.90
72604;DHT22;60645;56.968;24.196;2024-01-27T01:09:07;-2.00;91.70
72604;DHT22;60645;56.968;24.196;2024-01-27T01:11:34;-1.90;91.70
72604;DHT22;60645;56.968;24.196;2024-01-27T01:14:05;-1.90;91.50
72604;DHT22;60645;56.968;24.196;2024-01-27T01:16:33;-2.00;91.90
72604;DHT22;60645;56.968;24.196;2024-01-27T01:19:00;-1.90;91.60
72604;DHT22;60645;56.968;24.196;2024-01-27T01:21:27;-1.80;91.40
72604;DHT22;60645;56.968;24.196;2024-01-27T01:23:55;-1.80;91.60
72604;DHT22;60645;56.968;24.196;2024-01-27T01:26:22;-2.00;91.20
72604;DHT22;60645;56.968;24.196;2024-01-27T01:28:49;-1.90;91.50
72604;DHT22;60645;56.968;24.196;2024-01-27T01:31:16;-2.00;91.40
72604;DHT22;60645;56.968;24.196;2024-01-27T01:33:43;-1.90;91.20
72604;DHT22;60645;56.968;24.196;2024-01-27T01:36:10;-1.80;91.40
72604;DHT22;60645;56.968;24.196;2024-01-27T01:38:37;-1.90;91.60
72604;DHT22;60645;56.968;24.196;2024-01-27T01:41:04;-1.70;91.70
72604;DHT22;60645;56.968;24.196;2024-01-27T01:43:31;-1.90;91.00
72604;DHT22;60645;56.968;24.196;2024-01-27T01:45:58;-1.80;91.10
72604;DHT22;60645;56.968;24.196;2024-01-27T01:48:25;-1.60;91.20
72604;DHT22;60645;56.968;24.196;2024-01-27T01:50:53;-1.80;91.00
72604;DHT22;60645;56.968;24.196;2024-01-27T01:53:20;-1.70;91.20
72604;DHT22;60645;56.968;24.196;2024-01-27T01:55:47;-1.80;91.10
72604;DHT22;60645;56.968;24.196;2024-01-27T01:58:16;-1.60;91.20
72604;DHT22;60645;56.968;24.196;2024-01-27T02:00:43;-1.80;91.20
72604;DHT22;60645;56.968;24.196;2024-01-27T02:03:12;-2.00;91.30
72604;DHT22;60645;56.968;24.196;2024-01-27T02:05:39;-1.70;91.30
72604;DHT22;60645;56.968;24.196;2024-01-27T02:08:09;-1.60;91.10
72604;DHT22;60645;56.968;24.196;2024-01-27T02:10:36;-1.90;90.70
72604;DHT22;60645;56.968;24.196;2024-01-27T02:13:25;-2.00;90.80
72604;DHT22;60645;56.968;24.196;2024-01-27T02:15:53;-1.90;90.50
72604;DHT22;60645;56.968;24.196;2024-01-27T02:18:20;-1.70;90.70
72604;DHT22;60645;56.968;24.196;2024-01-27T02:20:48;-1.90;90.60
72604;DHT22;60645;56.968;24.196;2024-01-27T02:23:15;-1.80;90.40
72604;DHT22;60645;56.968;24.196;2024-01-27T02:25:41;-1.80;90.00
72604;DHT22;60645;56.968;24.196;2024-01-27T02:28:08;-1.60;89.50
72604;DHT22;60645;56.968;24.196;2024-01-27T02:30:35;-1.90;90.00
72604;DHT22;60645;56.968;24.196;2024-01-27T02:33:02;-1.90;90.20
72604;DHT22;60645;56.968;24.196;2024-01-27T02:35:29;-1.90;90.30
72604;DHT22;60645;56.968;24.196;2024-01-27T02:37:56;-1.90;90.40
72604;DHT22;60645;56.968;24.196;2024-01-27T02:40:23;-1.90;90.10
72604;DHT22;60645;56.968;24.196;2024-01-27T02:42:50;-1.90;90.00
72604;DHT22;60645;56.968;24.196;2024-01-27T02:45:17;-1.90;90.10
72604;DHT22;60645;56.968;24.196;2024-01-27T02:47:44;-1.90;89.80
72604;DHT22;60645;56.968;24.196;2024-01-27T02:50:12;-1.90;90.20
72604;DHT22;60645;56.968;24.196;2024-01-27T02:52:39;-1.80;89.90
72604;DHT22;60645;56.968;24.196;2024-01-27T02:55:06;-1.70;90.00
72604;DHT22;60645;56.968;24.196;2024-01-27T02:57:32;-1.80;89.90
72604;DHT22;60645;56.968;24.196;2024-01-27T02:59:59;-1.70;89.70
72604;DHT22;60645;56.968;24.196;2024-01-27T03:02:26;-1.90;89.60
72604;DHT22;60645;56.968;24.196;2024-01-27T03:04:53;-1.60;89.50
72604;DHT22;60645;56.968;24.196;2024-01-27T03:07:20;-1.70;89.90
72604;DHT22;60645;56.968;24.196;2024-01-27T03:09:47;-1.70;89.70
72604;DHT22;60645;56.968;24.196;2024-01-27T03:12:14;-1.60;89.90
72604;DHT22;60645;56.968;24.196;2024-01-27T03:14:42;-1.70;89.50
72604;DHT22;60645;56.968;24.196;2024-01-27T03:17:09;-1.50;89.70
72604;DHT22;60645;56.968;24.196;2024-01-27T03:19:36;-1.60;89.80
72604;DHT22;60645;56.968;24.196;2024-01-27T03:22:03;-1.70;90.00
72604;DHT22;60645;56.968;24.196;2024-01-27T03:24:30;-1.70;89.80
72604;DHT22;60645;56.968;24.196;2024-01-27T03:26:57;-1.60;90.10
72604;DHT22;60645;56.968;24.196;2024-01-27T03:29:24;-1.70;90.00
72604;DHT22;60645;56.968;24.196;2024-01-27T03:31:51;-1.70;90.30
72604;DHT22;60645;56.968;24.196;2024-01-27T03:34:18;-1.60;90.20
72604;DHT22;60645;56.968;24.196;2024-01-27T03:36:49;-1.60;90.40
72604;DHT22;60645;56.968;24.196;2024-01-27T03:39:16;-1.60;90.10
72604;DHT22;60645;56.968;24.196;2024-01-27T03:41:43;-1.50;90.20
72604;DHT22;60645;56.968;24.196;2024-01-27T03:44:10;-1.40;90.40
72604;DHT22;60645;56.968;24.196;2024-01-27T03:46:37;-1.60;90.10
72604;DHT22;60645;56.968;24.196;2024-01-27T03:49:06;-1.50;90.30
72604;DHT22;60645;56.968;24.196;2024-01-27T03:51:33;-1.40;90.20
72604;DHT22;60645;56.968;24.196;2024-01-27T03:54:00;-1.70;90.20
72604;DHT22;60645;56.968;24.196;2024-01-27T03:56:27;-1.50;90.20
72604;DHT22;60645;56.968;24.196;2024-01-27T03:58:54;-1.50;90.40
72604;DHT22;60645;56.968;24.196;2024-01-27T04:01:21;-1.50;90.40
72604;DHT22;60645;56.968;24.196;2024-01-27T04:03:48;-1.50;90.70
72604;DHT22;60645;56.968;24.196;2024-01-27T04:06:15;-1.50;90.40
72604;DHT22;60645;56.968;24.196;2024-01-27T04:08:42;-1.50;90.60
72604;DHT22;60645;56.968;24.196;2024-01-27T04:11:22;-1.60;90.60
72604;DHT22;60645;56.968;24.196;2024-01-27T04:13:49;-1.50;90.80
72604;DHT22;60645;56.968;24.196;2024-01-27T04:16:19;-1.40;90.70
72604;DHT22;60645;56.968;24.196;2024-01-27T04:18:46;-1.50;90.80
72604;DHT22;60645;56.968;24.196;2024-01-27T04:21:14;-1.40;90.90
72604;DHT22;60645;56.968;24.196;2024-01-27T04:23:41;-1.50;90.90
72604;DHT22;60645;56.968;24.196;2024-01-27T04:26:08;-1.40;91.00
72604;DHT22;60645;56.968;24.196;2024-01-27T04:28:36;-1.50;91.00
72604;DHT22;60645;56.968;24.196;2024-01-27T04:31:03;-1.50;90.90
72604;DHT22;60645;56.968;24.196;2024-01-27T04:33:30;-1.30;90.90
72604;DHT22;60645;56.968;24.196;2024-01-27T04:35:58;-1.30;90.80
72604;DHT22;60645;56.968;24.196;2024-01-27T04:38:25;-1.50;90.80
72604;DHT22;60645;56.968;24.196;2024-01-27T04:40:52;-1.40;90.80
72604;DHT22;60645;56.968;24.196;2024-01-27T04:43:19;-1.30;90.70
72604;DHT22;60645;56.968;24.196;2024-01-27T04:45:49;-1.50;90.50
72604;DHT22;60645;56.968;24.196;2024-01-27T04:48:16;-1.40;90.60
72604;DHT22;60645;56.968;24.196;2024-01-27T04:50:44;-1.20;90.50
72604;DHT22;60645;56.968;24.196;2024-01-27T04:53:14;-1.40;90.50
72604;DHT22;60645;56.968;24.196;2024-01-27T04:55:41;-1.40;90.60
72604;DHT22;60645;56.968;24.196;2024-01-27T04:58:08;-1.20;90.30
72604;DHT22;60645;56.968;24.196;2024-01-27T05:00:35;-1.30;90.40
72604;DHT22;60645;56.968;24.196;2024-01-27T05:03:02;-1.40;90.40
72604;DHT22;60645;56.968;24.196;2024-01-27T05:05:32;-1.30;90.80
72604;DHT22;60645;56.968;24.196;2024-01-27T05:08:03;-1.60;90.30
72604;DHT22;60645;56.968;24.196;2024-01-27T05:10:30;-1.50;90.70
72604;DHT22;60645;56.968;24.196;2024-01-27T05:12:57;-1.30;90.70
72604;DHT22;60645;56.968;24.196;2024-01-27T05:15:24;-1.40;90.40
72604;DHT22;60645;56.968;24.196;2024-01-27T05:17:51;-1.30;90.40
72604;DHT22;60645;56.968;24.196;2024-01-27T05:20:18;-1.40;90.40
72604;DHT22;60645;56.968;24.196;2024-01-27T05:22:46;-1.20;90.50
72604;DHT22;60645;56.968;24.196;2024-01-27T05:25:13;-1.30;90.70
72604;DHT22;60645;56.968;24.196;2024-01-27T05:27:40;-1.40;90.50
72604;DHT22;60645;56.968;24.196;2024-01-27T05:30:08;-1.60;90.60
72604;DHT22;60645;56.968;24.196;2024-01-27T05:32:35;-1.50;90.90
72604;DHT22;60645;56.968;24.196;2024-01-27T05:35:02;-1.40;91.20
72604;DHT22;60645;56.968;24.196;2024-01-27T05:37:30;-1.30;91.30
72604;DHT22;60645;56.968;24.196;2024-01-27T05:39:57;-1.50;91.60
72604;DHT22;60645;56.968;24.196;2024-01-27T05:42:23;-1.50;91.50
72604;DHT22;60645;56.968;24.196;2024-01-27T05:44:50;-1.20;91.50
72604;DHT22;60645;56.968;24.196;2024-01-27T05:47:18;-1.50;91.30
72604;DHT22;60645;56.968;24.196;2024-01-27T05:49:44;-1.40;91.30
72604;DHT22;60645;56.968;24.196;2024-01-27T05:52:11;-1.50;91.50
72604;DHT22;60645;56.968;24.196;2024-01-27T05:54:51;-1.30;91.20
72604;DHT22;60645;56.968;24.196;2024-01-27T05:57:18;-1.40;91.20
72604;DHT22;60645;56.968;24.196;2024-01-27T05:59:46;-1.40;91.10
72604;DHT22;60645;56.968;24.196;2024-01-27T06:02:14;-1.50;91.10
72604;DHT22;60645;56.968;24.196;2024-01-27T06:04:41;-1.40;91.30
72604;DHT22;60645;56.968;24.196;2024-01-27T06:07:08;-1.50;91.20
72604;DHT22;60645;56.968;24.196;2024-01-27T06:09:37;-1.30;91.30
72604;DHT22;60645;56.968;24.196;2024-01-27T06:12:04;-1.30;90.80
72604;DHT22;60645;56.968;24.196;2024-01-27T06:14:31;-1.50;91.10
72604;DHT22;60645;56.968;24.196;2024-01-27T06:16:58;-1.50;91.20
72604;DHT22;60645;56.968;24.196;2024-01-27T06:19:26;-1.50;91.10
72604;DHT22;60645;56.968;24.196;2024-01-27T06:21:57;-1.30;91.10
72604;DHT22;60645;56.968;24.196;2024-01-27T06:24:23;-1.60;90.90
72604;DHT22;60645;56.968;24.196;2024-01-27T06:26:50;-1.40;91.60
72604;DHT22;60645;56.968;24.196;2024-01-27T06:29:17;-1.40;91.10
72604;DHT22;60645;56.968;24.196;2024-01-27T06:31:45;-1.50;91.20
72604;DHT22;60645;56.968;24.196;2024-01-27T06:34:12;-1.60;91.40
72604;DHT22;60645;56.968;24.196;2024-01-27T06:36:39;-1.50;91.50
72604;DHT22;60645;56.968;24.196;2024-01-27T06:39:06;-1.50;91.00
72604;DHT22;60645;56.968;24.196;2024-01-27T06:41:34;-1.40;90.80
72604;DHT22;60645;56.968;24.196;2024-01-27T06:44:01;-1.50;90.70
72604;DHT22;60645;56.968;24.196;2024-01-27T06:46:29;-1.50;90.90
72604;DHT22;60645;56.968;24.196;2024-01-27T06:48:58;-1.50;91.00
72604;DHT22;60645;56.968;24.196;2024-01-27T06:51:25;-1.60;90.70
72604;DHT22;60645;56.968;24.196;2024-01-27T06:53:52;-1.50;90.80
72604;DHT22;60645;56.968;24.196;2024-01-27T06:56:19;-1.30;91.00
72604;DHT22;60645;56.968;24.196;2024-01-27T06:58:46;-1.40;90.90
72604;DHT22;60645;56.968;24.196;2024-01-27T07:01:13;-1.40;90.70
72604;DHT22;60645;56.968;24.196;2024-01-27T07:03:40;-1.50;90.50
72604;DHT22;60645;56.968;24.196;2024-01-27T07:06:07;-1.30;90.70
72604;DHT22;60645;56.968;24.196;2024-01-27T07:08:34;-1.40;90.60
72604;DHT22;60645;56.968;24.196;2024-01-27T07:11:04;-1.40;90.40
72604;DHT22;60645;56.968;24.196;2024-01-27T07:13:31;-1.40;90.60
72604;DHT22;60645;56.968;24.196;2024-01-27T07:15:59;-1.40;90.50
72604;DHT22;60645;56.968;24.196;2024-01-27T07:18:26;-1.30;90.50
72604;DHT22;60645;56.968;24.196;2024-01-27T07:20:53;-1.10;90.70
72604;DHT22;60645;56.968;24.196;2024-01-27T07:23:21;-1.10;90.70
72604;DHT22;60645;56.968;24.196;2024-01-27T07:25:48;-1.30;90.50
72604;DHT22;60645;56.968;24.196;2024-01-27T07:28:15;-1.20;90.40
72604;DHT22;60645;56.968;24.196;2024-01-27T07:30:45;-1.10;90.50
72604;DHT22;60645;56.968;24.196;2024-01-27T07:33:12;-1.30;90.40
72604;DHT22;60645;56.968;24.196;2024-01-27T07:35:40;-1.10;90.10
72604;DHT22;60645;56.968;24.196;2024-01-27T07:38:07;-1.20;90.20
72604;DHT22;60645;56.968;24.196;2024-01-27T07:40:35;-1.30;90.20
72604;DHT22;60645;56.968;24.196;2024-01-27T07:43:02;-1.10;90.10
72604;DHT22;60645;56.968;24.196;2024-01-27T07:45:30;-1.00;89.80
72604;DHT22;60645;56.968;24.196;2024-01-27T07:47:57;-1.20;90.10
72604;DHT22;60645;56.968;24.196;2024-01-27T07:50:27;-0.90;90.00
72604;DHT22;60645;56.968;24.196;2024-01-27T07:52:54;-1.00;89.80
72604;DHT22;60645;56.968;24.196;2024-01-27T07:55:21;-1.10;89.90
72604;DHT22;60645;56.968;24.196;2024-01-27T07:57:48;-1.00;90.00
72604;DHT22;60645;56.968;24.196;2024-01-27T08:00:15;-0.90;90.10
72604;DHT22;60645;56.968;24.196;2024-01-27T08:02:42;-1.10;89.50
72604;DHT22;60645;56.968;24.196;2024-01-27T08:05:09;-0.90;89.80
72604;DHT22;60645;56.968;24.196;2024-01-27T08:07:36;-1.10;89.50
72604;DHT22;60645;56.968;24.196;2024-01-27T08:10:03;-0.80;90.10
72604;DHT22;60645;56.968;24.196;2024-01-27T08:12:31;-0.90;89.40
72604;DHT22;60645;56.968;24.196;2024-01-27T08:14:58;-1.00;89.40
72604;DHT22;60645;56.968;24.196;2024-01-27T08:17:25;-1.00;89.40
72604;DHT22;60645;56.968;24.196;2024-01-27T08:19:52;-0.90;89.40
72604;DHT22;60645;56.968;24.196;2024-01-27T08:22:19;-0.90;89.70
72604;DHT22;60645;56.968;24.196;2024-01-27T08:24:46;-1.00;89.40
72604;DHT22;60645;56.968;24.196;2024-01-27T08:27:13;-0.90;89.20
72604;DHT22;60645;56.968;24.196;2024-01-27T08:29:40;-1.00;89.40
72604;DHT22;60645;56.968;24.196;2024-01-27T08:32:07;-0.70;89.50
72604;DHT22;60645;56.968;24.196;2024-01-27T08:34:34;-0.70;89.00
72604;DHT22;60645;56.968;24.196;2024-01-27T08:37:01;-0.50;89.20
72604;DHT22;60645;56.968;24.196;2024-01-27T08:39:29;-0.40;88.70
72604;DHT22;60645;56.968;24.196;2024-01-27T08:41:56;-0.40;88.50
72604;DHT22;60645;56.968;24.196;2024-01-27T08:44:23;-0.50;88.40
72604;DHT22;60645;56.968;24.196;2024-01-27T08:46:50;-0.60;88.60
72604;DHT22;60645;56.968;24.196;2024-01-27T08:49:17;-0.60;88.60
72604;DHT22;60645;56.968;24.196;2024-01-27T08:51:44;-0.60;88.60
72604;DHT22;60645;56.968;24.196;2024-01-27T08:54:11;-0.50;88.30
72604;DHT22;60645;56.968;24.196;2024-01-27T08:56:41;-0.50;88.40
72604;DHT22;60645;56.968;24.196;2024-01-27T08:59:08;-0.60;88.20
72604;DHT22;60645;56.968;24.196;2024-01-27T09:01:34;-0.50;88.20
72604;DHT22;60645;56.968;24.196;2024-01-27T09:04:01;-0.30;88.50
72604;DHT22;60645;56.968;24.196;2024-01-27T09:06:28;-0.30;88.00
72604;DHT22;60645;56.968;24.196;2024-01-27T09:08:57;-0.40;87.90
72604;DHT22;60645;56.968;24.196;2024-01-27T09:11:24;-0.30;88.30
72604;DHT22;60645;56.968;24.196;2024-01-27T09:13:56;-0.10;87.50
72604;DHT22;60645;56.968;24.196;2024-01-27T09:16:23;-0.20;87.60
72604;DHT22;60645;56.968;24.196;2024-01-27T09:18:50;-0.20;88.10
72604;DHT22;60645;56.968;24.196;2024-01-27T09:21:19;-0.20;88.10
72604;DHT22;60645;56.968;24.196;2024-01-27T09:23:49;-0.40;87.70
72604;DHT22;60645;56.968;24.196;2024-01-27T09:26:16;-0.20;87.70
72604;DHT22;60645;56.968;24.196;2024-01-27T09:28:45;-0.10;87.50
72604;DHT22;60645;56.968;24.196;2024-01-27T09:31:14;-0.20;87.80
72604;DHT22;60645;56.968;24.196;2024-01-27T09:33:41;-0.30;87.90
72604;DHT22;60645;56.968;24.196;2024-01-27T09:36:09;-0.10;88.00
72604;DHT22;60645;56.968;24.196;2024-01-27T09:38:36;-0.20;88.30
72604;DHT22;60645;56.968;24.196;2024-01-27T09:41:03;-0.10;87.80
72604;DHT22;60645;56.968;24.196;2024-01-27T09:43:30;-0.20;88.30
72604;DHT22;60645;56.968;24.196;2024-01-27T09:45:58;0.00;88.40
72604;DHT22;60645;56.968;24.196;2024-01-27T09:48:26;0.00;87.70
72604;DHT22;60645;56.968;24.196;2024-01-27T09:50:54;0.00;87.30
72604;DHT22;60645;56.968;24.196;2024-01-27T09:53:22;-0.10;87.60
72604;DHT22;60645;56.968;24.196;2024-01-27T09:55:49;0.00;87.50
72604;DHT22;60645;56.968;24.196;2024-01-27T09:58:18;0.00;87.60
72604;DHT22;60645;56.968;24.196;2024-01-27T10:00:45;0.00;87.50
72604;DHT22;60645;56.968;24.196;2024-01-27T10:03:13;0.00;88.00
72604;DHT22;60645;56.968;24.196;2024-01-27T10:05:41;0.00;88.10
72604;DHT22;60645;56.968;24.196;2024-01-27T10:08:08;0.00;88.40
72604;DHT22;60645;56.968;24.196;2024-01-27T10:10:35;0.00;87.60
72604;DHT22;60645;56.968;24.196;2024-01-27T10:13:02;0.10;88.10
72604;DHT22;60645;56.968;24.196;2024-01-27T10:15:30;-0.10;88.00
72604;DHT22;60645;56.968;24.196;2024-01-27T10:18:06;0.10;88.30
72604;DHT22;60645;56.968;24.196;2024-01-27T10:20:34;0.00;87.70
72604;DHT22;60645;56.968;24.196;2024-01-27T10:23:10;-0.10;87.60
72604;DHT22;60645;56.968;24.196;2024-01-27T10:25:38;0.00;88.00
72604;DHT22;60645;56.968;24.196;2024-01-27T10:28:08;0.20;88.30
72604;DHT22;60645;56.968;24.196;2024-01-27T10:30:35;0.30;87.30
72604;DHT22;60645;56.968;24.196;2024-01-27T10:33:03;0.30;87.00
72604;DHT22;60645;56.968;24.196;2024-01-27T10:35:30;0.60;86.60
72604;DHT22;60645;56.968;24.196;2024-01-27T10:37:57;0.60;87.00
72604;DHT22;60645;56.968;24.196;2024-01-27T10:40:25;0.30;86.70
72604;DHT22;60645;56.968;24.196;2024-01-27T10:43:00;0.40;86.80
72604;DHT22;60645;56.968;24.196;2024-01-27T10:48:01;0.30;86.80
72604;DHT22;60645;56.968;24.196;2024-01-27T10:50:29;0.20;86.60
72604;DHT22;60645;56.968;24.196;2024-01-27T10:52:58;0.10;87.20
72604;DHT22;60645;56.968;24.196;2024-01-27T10:55:27;0.50;87.10
72604;DHT22;60645;56.968;24.196;2024-01-27T10:57:54;0.20;86.60
72604;DHT22;60645;56.968;24.196;2024-01-27T11:00:22;0.40;86.90
72604;DHT22;60645;56.968;24.196;2024-01-27T11:02:52;0.30;87.10
72604;DHT22;60645;56.968;24.196;2024-01-27T11:05:21;0.10;87.20
72604;DHT22;60645;56.968;24.196;2024-01-27T11:07:51;0.00;87.60
72604;DHT22;60645;56.968;24.196;2024-01-27T11:10:18;0.20;87.30
72604;DHT22;60645;56.968;24.196;2024-01-27T11:12:47;0.40;87.20
72604;DHT22;60645;56.968;24.196;2024-01-27T11:15:15;0.10;87.60
72604;DHT22;60645;56.968;24.196;2024-01-27T11:17:42;0.30;87.30
72604;DHT22;60645;56.968;24.196;2024-01-27T11:20:10;0.20;87.30
72604;DHT22;60645;56.968;24.196;2024-01-27T11:22:42;0.40;87.90
72604;DHT22;60645;56.968;24.196;2024-01-27T11:27:37;0.30;86.90
72604;DHT22;60645;56.968;24.196;2024-01-27T11:30:04;0.60;87.00
72604;DHT22;60645;56.968;24.196;2024-01-27T11:32:31;0.60;86.60
72604;DHT22;60645;56.968;24.196;2024-01-27T11:35:00;0.70;86.70
72604;DHT22;60645;56.968;24.196;2024-01-27T11:37:30;0.70;87.00
72604;DHT22;60645;56.968;24.196;2024-01-27T11:40:03;0.50;86.70
72604;DHT22;60645;56.968;24.196;2024-01-27T11:42:31;0.60;86.90
72604;DHT22;60645;56.968;24.196;2024-01-27T11:44:58;0.50;86.80
72604;DHT22;60645;56.968;24.196;2024-01-27T11:47:25;0.30;87.20
72604;DHT22;60645;56.968;24.196;2024-01-27T11:49:53;0.40;87.50
72604;DHT22;60645;56.968;24.196;2024-01-27T11:52:21;0.40;87.60
72604;DHT22;60645;56.968;24.196;2024-01-27T11:54:54;0.30;87.60
72604;DHT22;60645;56.968;24.196;2024-01-27T11:57:22;0.60;87.50
72604;DHT22;60645;56.968;24.196;2024-01-27T11:59:52;0.30;87.40
72604;DHT22;60645;56.968;24.196;2024-01-27T12:02:20;0.50;87.70
72604;DHT22;60645;56.968;24.196;2024-01-27T12:04:47;0.60;87.50
72604;DHT22;60645;56.968;24.196;2024-01-27T12:07:14;0.50;87.60
72604;DHT22;60645;56.968;24.196;2024-01-27T12:09:41;0.60;87.50
72604;DHT22;60645;56.968;24.196;2024-01-27T12:12:08;0.60;87.40
72604;DHT22;60645;56.968;24.196;2024-01-27T12:14:39;0.60;87.40
72604;DHT22;60645;56.968;24.196;2024-01-27T12:17:09;0.90;87.90
72604;DHT22;60645;56.968;24.196;2024-01-27T12:19:39;0.80;87.10
72604;DHT22;60645;56.968;24.196;2024-01-27T12:24:47;0.70;87.30
72604;DHT22;60645;56.968;24.196;2024-01-27T12:27:15;0.60;87.30
72604;DHT22;60645;56.968;24.196;2024-01-27T12:29:43;0.60;87.30
72604;DHT22;60645;56.968;24.196;2024-01-27T12:32:09;0.60;87.40
72604;DHT22;60645;56.968;24.196;2024-01-27T12:34:40;0.70;87.40
72604;DHT22;60645;56.968;24.196;2024-01-27T12:37:08;0.60;87.60
72604;DHT22;60645;56.968;24.196;2024-01-27T12:39:35;0.50;87.90
72604;DHT22;60645;56.968;24.196;2024-01-27T12:42:02;0.60;88.10
72604;DHT22;60645;56.968;24.196;2024-01-27T12:44:29;0.30;88.30
72604;DHT22;60645;56.968;24.196;2024-01-27T12:46:56;0.40;88.40
72604;DHT22;60645;56.968;24.196;2024-01-27T12:49:23;0.50;88.50
72604;DHT22;60645;56.968;24.196;2024-01-27T12:51:50;0.40;88.40
72604;DHT22;60645;56.968;24.196;2024-01-27T12:54:18;0.40;88.90
72604;DHT22;60645;56.968;24.196;2024-01-27T12:56:45;0.50;89.10
72604;DHT22;60645;56.968;24.196;2024-01-27T12:59:12;0.50;89.00
72604;DHT22;60645;56.968;24.196;2024-01-27T13:01:41;0.30;88.70
72604;DHT22;60645;56.968;24.196;2024-01-27T13:04:08;0.40;88.90
72604;DHT22;60645;56.968;24.196;2024-01-27T13:06:35;0.60;89.00
72604;DHT22;60645;56.968;24.196;2024-01-27T13:09:02;0.50;88.80
72604;DHT22;60645;56.968;24.196;2024-01-27T13:11:29;0.40;88.60
72604;DHT22;60645;56.968;24.196;2024-01-27T13:13:56;0.40;88.60
72604;DHT22;60645;56.968;24.196;2024-01-27T13:16:22;0.40;88.80
72604;DHT22;60645;56.968;24.196;2024-01-27T13:18:49;0.40;88.80
72604;DHT22;60645;56.968;24.196;2024-01-27T13:21:16;0.10;89.40
72604;DHT22;60645;56.968;24.196;2024-01-27T13:23:43;0.40;89.40
72604;DHT22;60645;56.968;24.196;2024-01-27T13:26:10;0.30;89.10
72604;DHT22;60645;56.968;24.196;2024-01-27T13:28:45;0.30;89.20
72604;DHT22;60645;56.968;24.196;2024-01-27T13:31:12;0.30;89.20
72604;DHT22;60645;56.968;24.196;2024-01-27T13:33:39;0.30;88.90
72604;DHT22;60645;56.968;24.196;2024-01-27T13:36:06;0.20;89.00
72604;DHT22;60645;56.968;24.196;2024-01-27T13:38:34;0.30;89.30
72604;DHT22;60645;56.968;24.196;2024-01-27T13:41:02;0.10;89.70
72604;DHT22;60645;56.968;24.196;2024-01-27T13:43:29;0.20;89.90
72604;DHT22;60645;56.968;24.196;2024-01-27T13:45:56;0.20;89.80
72604;DHT22;60645;56.968;24.196;2024-01-27T13:48:23;0.50;89.40
72604;DHT22;60645;56.968;24.196;2024-01-27T13:50:50;0.20;89.40
72604;DHT22;60645;56.968;24.196;2024-01-27T13:53:16;0.30;89.80
72604;DHT22;60645;56.968;24.196;2024-01-27T13:55:44;0.20;89.60
72604;DHT22;60645;56.968;24.196;2024-01-27T13:58:11;0.10;89.60
72604;DHT22;60645;56.968;24.196;2024-01-27T14:00:38;0.30;89.70
72604;DHT22;60645;56.968;24.196;2024-01-27T14:03:05;0.00;89.50
72604;DHT22;60645;56.968;24.196;2024-01-27T14:05:32;0.10;90.00
72604;DHT22;60645;56.968;24.196;2024-01-27T14:07:59;0.20;89.70
72604;DHT22;60645;56.968;24.196;2024-01-27T14:10:27;0.30;89.80
72604;DHT22;60645;56.968;24.196;2024-01-27T14:12:53;0.30;89.70
72604;DHT22;60645;56.968;24.196;2024-01-27T14:15:20;0.30;89.80
72604;DHT22;60645;56.968;24.196;2024-01-27T14:17:48;0.30;89.30
72604;DHT22;60645;56.968;24.196;2024-01-27T14:20:15;0.30;89.40
72604;DHT22;60645;56.968;24.196;2024-01-27T14:22:43;0.10;89.80
72604;DHT22;60645;56.968;24.196;2024-01-27T14:25:10;0.00;89.80
72604;DHT22;60645;56.968;24.196;2024-01-27T14:27:38;0.20;90.40
72604;DHT22;60645;56.968;24.196;2024-01-27T14:30:05;0.10;90.30
72604;DHT22;60645;56.968;24.196;2024-01-27T14:32:32;0.00;90.40
72604;DHT22;60645;56.968;24.196;2024-01-27T14:35:00;0.00;90.60
72604;DHT22;60645;56.968;24.196;2024-01-27T14:37:27;0.00;90.60
72604;DHT22;60645;56.968;24.196;2024-01-27T14:39:54;0.10;90.60
72604;DHT22;60645;56.968;24.196;2024-01-27T14:42:22;0.10;90.70
72604;DHT22;60645;56.968;24.196;2024-01-27T14:44:50;0.00;90.60
72604;DHT22;60645;56.968;24.196;2024-01-27T14:47:19;0.00;90.50
72604;DHT22;60645;56.968;24.196;2024-01-27T14:49:47;0.00;90.40
72604;DHT22;60645;56.968;24.196;2024-01-27T14:52:14;0.10;90.70
72604;DHT22;60645;56.968;24.196;2024-01-27T14:54:41;0.20;90.70
72604;DHT22;60645;56.968;24.196;2024-01-27T14:57:08;0.20;90.80
72604;DHT22;60645;56.968;24.196;2024-01-27T14:59:37;0.10;90.70
72604;DHT22;60645;56.968;24.196;2024-01-27T15:02:07;0.10;90.80
72604;DHT22;60645;56.968;24.196;2024-01-27T15:04:36;0.30;90.30
72604;DHT22;60645;56.968;24.196;2024-01-27T15:07:03;0.10;90.60
72604;DHT22;60645;56.968;24.196;2024-01-27T15:09:30;0.10;90.30
72604;DHT22;60645;56.968;24.196;2024-01-27T15:11:57;0.10;90.40
72604;DHT22;60645;56.968;24.196;2024-01-27T15:14:24;0.00;90.40
72604;DHT22;60645;56.968;24.196;2024-01-27T15:16:51;0.00;90.60
72604;DHT22;60645;56.968;24.196;2024-01-27T15:19:17;0.00;90.70
72604;DHT22;60645;56.968;24.196;2024-01-27T15:21:45;0.10;90.80
72604;DHT22;60645;56.968;24.196;2024-01-27T15:24:12;0.20;90.30
72604;DHT22;60645;56.968;24.196;2024-01-27T15:26:39;0.00;90.20
72604;DHT22;60645;56.968;24.196;2024-01-27T15:29:06;0.10;90.60
72604;DHT22;60645;56.968;24.196;2024-01-27T15:31:32;0.20;90.30